sensor_id;sensor_type;location;lat;lon;timestamp;P1;durP1;ratioP1;P2;durP2;ratioP2
61025;SDS011;46911;32.650;-16.902;2022-10-17T00:01:56;5.82;;;0.75;;
61025;SDS011;46911;32.650;-16.902;2022-10-17T00:03:56;5.90;;;0.80;;
61025;SDS011;46911;32.650;-16.902;2022-10-17T00:05:57;1.98;;;0.65;;
61025;SDS011;46911;32.650;-16.902;2022-10-17T00:07:58;1.48;;;0.47;;
61025;SDS011;46911;32.650;-16.902;2022-10-17T00:10:02;5.30;;;1.00;;
61025;SDS011;46911;32.650;-16.902;2022-10-17T00:12:04;4.75;;;1.27;;
61025;SDS011;46911;32.650;-16.902;2022-10-17T00:14:07;4.43;;;0.70;;
61025;SDS011;46911;32.650;-16.902;2022-10-17T00:16:08;5.93;;;0.70;;
61025;SDS011;46911;32.650;-16.902;2022-10-17T00:18:09;2.80;;;1.00;;
61025;SDS011;46911;32.650;-16.902;2022-10-17T00:20:10;4.75;;;1.35;;
61025;SDS011;46911;32.650;-16.902;2022-10-17T00:22:14;4.55;;;0.90;;
61025;SDS011;46911;32.650;-16.902;2022-10-17T00:24:15;6.82;;;0.80;;
61025;SDS011;46911;32.650;-16.902;2022-10-17T00:26:19;4.63;;;1.23;;
61025;SDS011;46911;32.650;-16.902;2022-10-17T00:28:24;5.88;;;0.60;;
61025;SDS011;46911;32.650;-16.902;2022-10-17T00:30:31;7.10;;;1.00;;
61025;SDS011;46911;32.650;-16.902;2022-10-17T00:32:34;10.38;;;0.82;;
61025;SDS011;46911;32.650;-16.902;2022-10-17T00:34:35;7.43;;;0.95;;
61025;SDS011;46911;32.650;-16.902;2022-10-17T00:36:38;4.35;;;0.98;;
61025;SDS011;46911;32.650;-16.902;2022-10-17T00:38:42;2.13;;;0.80;;
61025;SDS011;46911;32.650;-16.902;2022-10-17T00:40:52;6.85;;;1.30;;
61025;SDS011;46911;32.650;-16.902;2022-10-17T00:42:52;5.43;;;0.80;;
61025;SDS011;46911;32.650;-16.902;2022-10-17T00:45:00;4.57;;;0.73;;
61025;SDS011;46911;32.650;-16.902;2022-10-17T00:47:26;5.82;;;0.80;;
61025;SDS011;46911;32.650;-16.902;2022-10-17T00:49:29;4.57;;;1.00;;
61025;SDS011;46911;32.650;-16.902;2022-10-17T00:51:37;4.57;;;0.52;;
61025;SDS011;46911;32.650;-16.902;2022-10-17T00:53:45;3.47;;;0.90;;
61025;SDS011;46911;32.650;-16.902;2022-10-17T00:55:47;1.17;;;0.70;;
61025;SDS011;46911;32.650;-16.902;2022-10-17T00:57:50;1.45;;;0.50;;
61025;SDS011;46911;32.650;-16.902;2022-10-17T00:59:53;2.90;;;0.55;;
61025;SDS011;46911;32.650;-16.902;2022-10-17T01:01:59;7.57;;;0.93;;
61025;SDS011;46911;32.650;-16.902;2022-10-17T01:04:09;3.60;;;1.05;;
61025;SDS011;46911;32.650;-16.902;2022-10-17T01:06:13;7.60;;;0.88;;
61025;SDS011;46911;32.650;-16.902;2022-10-17T01:08:14;5.35;;;0.88;;
61025;SDS011;46911;32.650;-16.902;2022-10-17T01:10:15;1.85;;;0.73;;
61025;SDS011;46911;32.650;-16.902;2022-10-17T01:14:49;7.07;;;0.73;;
61025;SDS011;46911;32.650;-16.902;2022-10-17T01:17:08;6.70;;;0.80;;
61025;SDS011;46911;32.650;-16.902;2022-10-17T01:19:43;5.22;;;0.90;;
61025;SDS011;46911;32.650;-16.902;2022-10-17T01:38:26;5.10;;;0.77;;
61025;SDS011;46911;32.650;-16.902;2022-10-17T01:45:27;4.43;;;0.95;;
61025;SDS011;46911;32.650;-16.902;2022-10-17T01:47:33;1.80;;;0.52;;
61025;SDS011;46911;32.650;-16.902;2022-10-17T01:49:39;4.72;;;0.80;;
61025;SDS011;46911;32.650;-16.902;2022-10-17T01:52:07;4.00;;;0.60;;
61025;SDS011;46911;32.650;-16.902;2022-10-17T01:54:12;2.85;;;0.52;;
61025;SDS011;46911;32.650;-16.902;2022-10-17T01:56:18;12.50;;;1.02;;
61025;SDS011;46911;32.650;-16.902;2022-10-17T01:58:27;3.42;;;0.70;;
61025;SDS011;46911;32.650;-16.902;2022-10-17T02:00:36;1.67;;;0.70;;
61025;SDS011;46911;32.650;-16.902;2022-10-17T02:02:42;2.95;;;0.60;;
61025;SDS011;46911;32.650;-16.902;2022-10-17T02:04:46;1.92;;;0.50;;
61025;SDS011;46911;32.650;-16.902;2022-10-17T02:06:55;4.85;;;0.85;;
61025;SDS011;46911;32.650;-16.902;2022-10-17T02:08:59;2.45;;;0.50;;
61025;SDS011;46911;32.650;-16.902;2022-10-17T02:11:19;4.25;;;0.80;;
61025;SDS011;46911;32.650;-16.902;2022-10-17T02:20:23;3.20;;;0.40;;
61025;SDS011;46911;32.650;-16.902;2022-10-17T02:22:43;3.30;;;0.75;;
61025;SDS011;46911;32.650;-16.902;2022-10-17T02:25:13;3.47;;;0.63;;
61025;SDS011;46911;32.650;-16.902;2022-10-17T02:29:45;4.15;;;0.60;;
61025;SDS011;46911;32.650;-16.902;2022-10-17T02:32:16;3.50;;;0.50;;
61025;SDS011;46911;32.650;-16.902;2022-10-17T02:34:45;1.77;;;0.68;;
61025;SDS011;46911;32.650;-16.902;2022-10-17T02:36:53;1.77;;;0.73;;
61025;SDS011;46911;32.650;-16.902;2022-10-17T02:39:00;5.78;;;0.68;;
61025;SDS011;46911;32.650;-16.902;2022-10-17T02:41:02;3.70;;;0.60;;
61025;SDS011;46911;32.650;-16.902;2022-10-17T02:43:07;2.58;;;0.55;;
61025;SDS011;46911;32.650;-16.902;2022-10-17T02:45:11;16.13;;;0.75;;
61025;SDS011;46911;32.650;-16.902;2022-10-17T02:49:51;4.05;;;0.60;;
61025;SDS011;46911;32.650;-16.902;2022-10-17T02:52:01;1.05;;;0.30;;
61025;SDS011;46911;32.650;-16.902;2022-10-17T02:56:17;3.38;;;0.40;;
61025;SDS011;46911;32.650;-16.902;2022-10-17T02:58:21;2.25;;;0.30;;
61025;SDS011;46911;32.650;-16.902;2022-10-17T03:00:27;3.63;;;0.70;;
61025;SDS011;46911;32.650;-16.902;2022-10-17T03:02:43;1.90;;;0.52;;
61025;SDS011;46911;32.650;-16.902;2022-10-17T03:04:45;1.45;;;0.47;;
61025;SDS011;46911;32.650;-16.902;2022-10-17T03:06:47;2.38;;;0.50;;
61025;SDS011;46911;32.650;-16.902;2022-10-17T03:08:51;4.80;;;0.50;;
61025;SDS011;46911;32.650;-16.902;2022-10-17T03:10:55;4.13;;;0.47;;
61025;SDS011;46911;32.650;-16.902;2022-10-17T03:12:56;3.47;;;0.57;;
61025;SDS011;46911;32.650;-16.902;2022-10-17T03:15:00;3.85;;;1.02;;
61025;SDS011;46911;32.650;-16.902;2022-10-17T03:17:03;2.50;;;0.45;;
61025;SDS011;46911;32.650;-16.902;2022-10-17T03:19:04;2.20;;;0.38;;
61025;SDS011;46911;32.650;-16.902;2022-10-17T03:21:08;0.52;;;0.38;;
61025;SDS011;46911;32.650;-16.902;2022-10-17T03:23:11;4.68;;;0.43;;
61025;SDS011;46911;32.650;-16.902;2022-10-17T03:25:13;2.15;;;0.30;;
61025;SDS011;46911;32.650;-16.902;2022-10-17T03:27:17;4.53;;;0.28;;
61025;SDS011;46911;32.650;-16.902;2022-10-17T03:29:19;2.10;;;0.40;;
61025;SDS011;46911;32.650;-16.902;2022-10-17T03:31:21;2.95;;;0.32;;
61025;SDS011;46911;32.650;-16.902;2022-10-17T03:33:22;1.30;;;0.25;;
61025;SDS011;46911;32.650;-16.902;2022-10-17T03:35:24;1.80;;;0.40;;
61025;SDS011;46911;32.650;-16.902;2022-10-17T03:37:27;2.03;;;0.47;;
61025;SDS011;46911;32.650;-16.902;2022-10-17T03:39:31;8.13;;;0.70;;
61025;SDS011;46911;32.650;-16.902;2022-10-17T03:41:35;0.88;;;0.17;;
61025;SDS011;46911;32.650;-16.902;2022-10-17T03:43:36;3.13;;;0.30;;
61025;SDS011;46911;32.650;-16.902;2022-10-17T03:45:37;2.63;;;0.32;;
61025;SDS011;46911;32.650;-16.902;2022-10-17T03:47:40;0.73;;;0.30;;
61025;SDS011;46911;32.650;-16.902;2022-10-17T03:49:41;5.22;;;0.52;;
61025;SDS011;46911;32.650;-16.902;2022-10-17T03:51:42;2.72;;;0.60;;
61025;SDS011;46911;32.650;-16.902;2022-10-17T03:53:49;2.67;;;1.13;;
61025;SDS011;46911;32.650;-16.902;2022-10-17T03:55:50;0.95;;;0.30;;
61025;SDS011;46911;32.650;-16.902;2022-10-17T03:57:59;1.30;;;0.30;;
61025;SDS011;46911;32.650;-16.902;2022-10-17T04:00:00;4.32;;;0.25;;
61025;SDS011;46911;32.650;-16.902;2022-10-17T04:02:03;2.63;;;0.30;;
61025;SDS011;46911;32.650;-16.902;2022-10-17T04:04:06;1.65;;;0.47;;
61025;SDS011;46911;32.650;-16.902;2022-10-17T04:06:10;2.80;;;0.47;;
61025;SDS011;46911;32.650;-16.902;2022-10-17T04:08:17;0.75;;;0.30;;
61025;SDS011;46911;32.650;-16.902;2022-10-17T04:10:38;3.47;;;0.45;;
61025;SDS011;46911;32.650;-16.902;2022-10-17T04:12:39;4.57;;;0.45;;
61025;SDS011;46911;32.650;-16.902;2022-10-17T04:14:40;4.68;;;0.85;;
61025;SDS011;46911;32.650;-16.902;2022-10-17T04:16:41;4.00;;;0.60;;
61025;SDS011;46911;32.650;-16.902;2022-10-17T04:18:50;4.80;;;0.50;;
61025;SDS011;46911;32.650;-16.902;2022-10-17T04:20:53;6.00;;;0.60;;
61025;SDS011;46911;32.650;-16.902;2022-10-17T04:22:55;1.10;;;0.50;;
61025;SDS011;46911;32.650;-16.902;2022-10-17T04:24:58;1.55;;;0.40;;
61025;SDS011;46911;32.650;-16.902;2022-10-17T04:27:08;2.00;;;0.43;;
61025;SDS011;46911;32.650;-16.902;2022-10-17T04:29:12;3.38;;;0.70;;
61025;SDS011;46911;32.650;-16.902;2022-10-17T04:31:18;5.20;;;0.70;;
61025;SDS011;46911;32.650;-16.902;2022-10-17T04:33:42;2.65;;;1.05;;
61025;SDS011;46911;32.650;-16.902;2022-10-17T04:35:53;0.68;;;0.28;;
61025;SDS011;46911;32.650;-16.902;2022-10-17T04:38:02;0.47;;;0.40;;
61025;SDS011;46911;32.650;-16.902;2022-10-17T04:40:08;2.83;;;0.63;;
61025;SDS011;46911;32.650;-16.902;2022-10-17T04:42:10;0.90;;;0.57;;
61025;SDS011;46911;32.650;-16.902;2022-10-17T04:44:15;4.82;;;0.55;;
61025;SDS011;46911;32.650;-16.902;2022-10-17T04:46:22;2.25;;;0.43;;
61025;SDS011;46911;32.650;-16.902;2022-10-17T04:48:26;1.15;;;0.50;;
61025;SDS011;46911;32.650;-16.902;2022-10-17T04:50:28;3.40;;;0.40;;
61025;SDS011;46911;32.650;-16.902;2022-10-17T04:52:56;2.45;;;0.93;;
61025;SDS011;46911;32.650;-16.902;2022-10-17T04:54:57;3.92;;;0.47;;
61025;SDS011;46911;32.650;-16.902;2022-10-17T04:57:00;3.60;;;0.80;;
61025;SDS011;46911;32.650;-16.902;2022-10-17T04:59:02;4.00;;;0.68;;
61025;SDS011;46911;32.650;-16.902;2022-10-17T05:01:06;2.60;;;0.80;;
61025;SDS011;46911;32.650;-16.902;2022-10-17T05:03:15;5.15;;;0.73;;
61025;SDS011;46911;32.650;-16.902;2022-10-17T05:05:16;4.05;;;0.60;;
61025;SDS011;46911;32.650;-16.902;2022-10-17T05:07:23;4.55;;;0.70;;
61025;SDS011;46911;32.650;-16.902;2022-10-17T05:09:41;5.05;;;0.45;;
61025;SDS011;46911;32.650;-16.902;2022-10-17T05:11:47;2.80;;;0.63;;
61025;SDS011;46911;32.650;-16.902;2022-10-17T05:13:52;3.67;;;0.63;;
61025;SDS011;46911;32.650;-16.902;2022-10-17T05:16:00;1.88;;;0.25;;
61025;SDS011;46911;32.650;-16.902;2022-10-17T05:18:05;2.50;;;0.63;;
61025;SDS011;46911;32.650;-16.902;2022-10-17T05:20:08;0.82;;;0.30;;
61025;SDS011;46911;32.650;-16.902;2022-10-17T05:22:12;1.75;;;0.45;;
61025;SDS011;46911;32.650;-16.902;2022-10-17T05:24:17;6.13;;;0.50;;
61025;SDS011;46911;32.650;-16.902;2022-10-17T05:26:17;1.27;;;0.40;;
61025;SDS011;46911;32.650;-16.902;2022-10-17T05:28:19;6.97;;;0.73;;
61025;SDS011;46911;32.650;-16.902;2022-10-17T05:30:20;3.95;;;1.08;;
61025;SDS011;46911;32.650;-16.902;2022-10-17T05:32:24;1.05;;;0.40;;
61025;SDS011;46911;32.650;-16.902;2022-10-17T05:34:24;5.40;;;1.05;;
61025;SDS011;46911;32.650;-16.902;2022-10-17T05:36:26;3.13;;;0.50;;
61025;SDS011;46911;32.650;-16.902;2022-10-17T05:38:28;3.85;;;0.60;;
61025;SDS011;46911;32.650;-16.902;2022-10-17T05:40:31;6.20;;;1.20;;
61025;SDS011;46911;32.650;-16.902;2022-10-17T05:42:36;2.95;;;0.57;;
61025;SDS011;46911;32.650;-16.902;2022-10-17T05:44:37;3.10;;;0.90;;
61025;SDS011;46911;32.650;-16.902;2022-10-17T05:46:43;4.75;;;0.70;;
61025;SDS011;46911;32.650;-16.902;2022-10-17T05:48:47;4.15;;;0.85;;
61025;SDS011;46911;32.650;-16.902;2022-10-17T05:50:56;4.72;;;1.10;;
61025;SDS011;46911;32.650;-16.902;2022-10-17T05:53:06;5.25;;;0.80;;
61025;SDS011;46911;32.650;-16.902;2022-10-17T05:55:15;2.38;;;0.70;;
61025;SDS011;46911;32.650;-16.902;2022-10-17T05:57:18;14.95;;;1.13;;
61025;SDS011;46911;32.650;-16.902;2022-10-17T05:59:19;3.05;;;0.80;;
61025;SDS011;46911;32.650;-16.902;2022-10-17T06:01:25;5.10;;;0.77;;
61025;SDS011;46911;32.650;-16.902;2022-10-17T06:03:27;5.65;;;1.13;;
61025;SDS011;46911;32.650;-16.902;2022-10-17T06:05:28;4.60;;;1.10;;
61025;SDS011;46911;32.650;-16.902;2022-10-17T06:07:30;4.72;;;1.17;;
61025;SDS011;46911;32.650;-16.902;2022-10-17T06:09:30;4.45;;;0.88;;
61025;SDS011;46911;32.650;-16.902;2022-10-17T06:11:31;5.00;;;0.98;;
61025;SDS011;46911;32.650;-16.902;2022-10-17T06:13:33;5.72;;;0.90;;
61025;SDS011;46911;32.650;-16.902;2022-10-17T06:15:36;5.30;;;0.77;;
61025;SDS011;46911;32.650;-16.902;2022-10-17T06:17:41;5.57;;;0.77;;
61025;SDS011;46911;32.650;-16.902;2022-10-17T06:19:42;5.95;;;0.82;;
61025;SDS011;46911;32.650;-16.902;2022-10-17T06:21:48;4.43;;;0.60;;
61025;SDS011;46911;32.650;-16.902;2022-10-17T06:23:55;5.85;;;1.75;;
61025;SDS011;46911;32.650;-16.902;2022-10-17T06:26:04;9.48;;;1.30;;
61025;SDS011;46911;32.650;-16.902;2022-10-17T06:28:09;6.47;;;1.42;;
61025;SDS011;46911;32.650;-16.902;2022-10-17T06:30:10;11.25;;;2.72;;
61025;SDS011;46911;32.650;-16.902;2022-10-17T06:32:11;5.95;;;1.15;;
61025;SDS011;46911;32.650;-16.902;2022-10-17T06:34:12;4.05;;;0.73;;
61025;SDS011;46911;32.650;-16.902;2022-10-17T06:36:14;5.90;;;1.20;;
61025;SDS011;46911;32.650;-16.902;2022-10-17T06:38:17;5.95;;;1.42;;
61025;SDS011;46911;32.650;-16.902;2022-10-17T06:40:18;9.18;;;0.98;;
61025;SDS011;46911;32.650;-16.902;2022-10-17T06:42:20;3.38;;;1.15;;
61025;SDS011;46911;32.650;-16.902;2022-10-17T06:44:41;13.35;;;1.45;;
61025;SDS011;46911;32.650;-16.902;2022-10-17T06:47:23;11.45;;;1.50;;
61025;SDS011;46911;32.650;-16.902;2022-10-17T06:49:30;6.30;;;1.70;;
61025;SDS011;46911;32.650;-16.902;2022-10-17T06:51:59;8.35;;;2.53;;
61025;SDS011;46911;32.650;-16.902;2022-10-17T06:54:13;5.85;;;1.60;;
61025;SDS011;46911;32.650;-16.902;2022-10-17T06:56:32;12.68;;;1.65;;
61025;SDS011;46911;32.650;-16.902;2022-10-17T06:58:54;8.90;;;1.55;;
61025;SDS011;46911;32.650;-16.902;2022-10-17T07:01:09;5.78;;;1.85;;
61025;SDS011;46911;32.650;-16.902;2022-10-17T07:03:12;9.95;;;2.30;;
61025;SDS011;46911;32.650;-16.902;2022-10-17T07:05:15;14.35;;;1.58;;
61025;SDS011;46911;32.650;-16.902;2022-10-17T07:07:20;5.60;;;1.35;;
61025;SDS011;46911;32.650;-16.902;2022-10-17T07:09:21;4.30;;;1.40;;
61025;SDS011;46911;32.650;-16.902;2022-10-17T07:11:26;3.58;;;1.40;;
61025;SDS011;46911;32.650;-16.902;2022-10-17T07:13:27;17.92;;;1.40;;
61025;SDS011;46911;32.650;-16.902;2022-10-17T07:15:28;14.30;;;1.25;;
61025;SDS011;46911;32.650;-16.902;2022-10-17T07:17:31;8.95;;;1.50;;
61025;SDS011;46911;32.650;-16.902;2022-10-17T07:19:34;12.45;;;1.73;;
61025;SDS011;46911;32.650;-16.902;2022-10-17T07:21:37;7.57;;;1.90;;
61025;SDS011;46911;32.650;-16.902;2022-10-17T07:23:38;8.98;;;1.45;;
61025;SDS011;46911;32.650;-16.902;2022-10-17T07:25:40;4.93;;;1.45;;
61025;SDS011;46911;32.650;-16.902;2022-10-17T07:27:43;13.55;;;2.42;;
61025;SDS011;46911;32.650;-16.902;2022-10-17T07:29:44;7.43;;;1.88;;
61025;SDS011;46911;32.650;-16.902;2022-10-17T07:32:10;9.93;;;1.40;;
61025;SDS011;46911;32.650;-16.902;2022-10-17T07:34:11;14.50;;;1.88;;
61025;SDS011;46911;32.650;-16.902;2022-10-17T07:36:12;10.15;;;1.42;;
61025;SDS011;46911;32.650;-16.902;2022-10-17T07:38:14;9.23;;;1.83;;
61025;SDS011;46911;32.650;-16.902;2022-10-17T07:40:15;11.70;;;2.03;;
61025;SDS011;46911;32.650;-16.902;2022-10-17T07:42:17;11.60;;;1.83;;
61025;SDS011;46911;32.650;-16.902;2022-10-17T07:44:18;20.55;;;2.33;;
61025;SDS011;46911;32.650;-16.902;2022-10-17T07:46:22;7.95;;;2.15;;
61025;SDS011;46911;32.650;-16.902;2022-10-17T07:48:23;13.57;;;2.17;;
61025;SDS011;46911;32.650;-16.902;2022-10-17T07:50:28;14.90;;;2.05;;
61025;SDS011;46911;32.650;-16.902;2022-10-17T07:52:34;9.55;;;1.60;;
61025;SDS011;46911;32.650;-16.902;2022-10-17T07:54:36;5.53;;;1.55;;
61025;SDS011;46911;32.650;-16.902;2022-10-17T07:56:40;14.30;;;1.90;;
61025;SDS011;46911;32.650;-16.902;2022-10-17T07:58:41;10.10;;;1.67;;
61025;SDS011;46911;32.650;-16.902;2022-10-17T08:00:44;16.27;;;1.67;;
61025;SDS011;46911;32.650;-16.902;2022-10-17T08:02:47;12.15;;;1.83;;
61025;SDS011;46911;32.650;-16.902;2022-10-17T08:04:48;21.10;;;1.98;;
61025;SDS011;46911;32.650;-16.902;2022-10-17T08:06:49;5.13;;;2.05;;
61025;SDS011;46911;32.650;-16.902;2022-10-17T08:08:50;5.18;;;1.50;;
61025;SDS011;46911;32.650;-16.902;2022-10-17T08:10:52;5.22;;;1.52;;
61025;SDS011;46911;32.650;-16.902;2022-10-17T08:12:54;8.15;;;1.83;;
61025;SDS011;46911;32.650;-16.902;2022-10-17T08:14:56;5.75;;;1.60;;
61025;SDS011;46911;32.650;-16.902;2022-10-17T08:16:57;9.77;;;1.90;;
61025;SDS011;46911;32.650;-16.902;2022-10-17T08:19:01;7.85;;;1.50;;
61025;SDS011;46911;32.650;-16.902;2022-10-17T08:21:03;13.40;;;2.42;;
61025;SDS011;46911;32.650;-16.902;2022-10-17T08:23:07;9.60;;;2.50;;
61025;SDS011;46911;32.650;-16.902;2022-10-17T08:25:09;17.58;;;4.00;;
61025;SDS011;46911;32.650;-16.902;2022-10-17T08:27:10;16.00;;;2.40;;
61025;SDS011;46911;32.650;-16.902;2022-10-17T08:29:13;18.10;;;2.67;;
61025;SDS011;46911;32.650;-16.902;2022-10-17T08:31:19;15.45;;;3.95;;
61025;SDS011;46911;32.650;-16.902;2022-10-17T08:33:21;11.40;;;4.30;;
61025;SDS011;46911;32.650;-16.902;2022-10-17T08:35:25;12.55;;;5.00;;
61025;SDS011;46911;32.650;-16.902;2022-10-17T08:37:27;8.20;;;1.90;;
61025;SDS011;46911;32.650;-16.902;2022-10-17T08:39:29;12.05;;;2.47;;
61025;SDS011;46911;32.650;-16.902;2022-10-17T08:46:22;8.90;;;1.48;;
61025;SDS011;46911;32.650;-16.902;2022-10-17T08:48:32;16.25;;;2.33;;
61025;SDS011;46911;32.650;-16.902;2022-10-17T08:55:15;10.48;;;2.10;;
61025;SDS011;46911;32.650;-16.902;2022-10-17T08:57:24;9.13;;;1.50;;
61025;SDS011;46911;32.650;-16.902;2022-10-17T08:59:38;8.63;;;1.65;;
61025;SDS011;46911;32.650;-16.902;2022-10-17T09:03:59;6.50;;;1.35;;
61025;SDS011;46911;32.650;-16.902;2022-10-17T09:06:26;20.08;;;2.33;;
61025;SDS011;46911;32.650;-16.902;2022-10-17T09:08:44;13.30;;;2.05;;
61025;SDS011;46911;32.650;-16.902;2022-10-17T09:10:59;32.15;;;2.97;;
61025;SDS011;46911;32.650;-16.902;2022-10-17T09:18:18;13.60;;;2.08;;
61025;SDS011;46911;32.650;-16.902;2022-10-17T09:20:35;14.43;;;2.25;;
61025;SDS011;46911;32.650;-16.902;2022-10-17T09:25:10;25.92;;;2.65;;
61025;SDS011;46911;32.650;-16.902;2022-10-17T09:29:22;10.05;;;1.45;;
61025;SDS011;46911;32.650;-16.902;2022-10-17T09:31:27;15.15;;;1.73;;
61025;SDS011;46911;32.650;-16.902;2022-10-17T09:33:37;18.60;;;2.05;;
61025;SDS011;46911;32.650;-16.902;2022-10-17T09:35:47;16.25;;;2.22;;
61025;SDS011;46911;32.650;-16.902;2022-10-17T09:37:50;6.93;;;1.80;;
61025;SDS011;46911;32.650;-16.902;2022-10-17T09:39:55;8.88;;;1.67;;
61025;SDS011;46911;32.650;-16.902;2022-10-17T09:41:59;9.50;;;2.10;;
61025;SDS011;46911;32.650;-16.902;2022-10-17T09:44:13;9.68;;;1.55;;
61025;SDS011;46911;32.650;-16.902;2022-10-17T09:46:24;5.75;;;1.55;;
61025;SDS011;46911;32.650;-16.902;2022-10-17T09:48:36;5.35;;;1.60;;
61025;SDS011;46911;32.650;-16.902;2022-10-17T09:50:44;12.85;;;1.45;;
61025;SDS011;46911;32.650;-16.902;2022-10-17T09:52:46;5.65;;;1.63;;
61025;SDS011;46911;32.650;-16.902;2022-10-17T09:54:51;6.50;;;1.50;;
61025;SDS011;46911;32.650;-16.902;2022-10-17T09:59:05;7.97;;;1.27;;
61025;SDS011;46911;32.650;-16.902;2022-10-17T10:01:16;5.65;;;1.17;;
61025;SDS011;46911;32.650;-16.902;2022-10-17T10:03:24;15.05;;;1.60;;
61025;SDS011;46911;32.650;-16.902;2022-10-17T10:05:31;9.75;;;1.20;;
61025;SDS011;46911;32.650;-16.902;2022-10-17T10:07:36;5.25;;;1.25;;
61025;SDS011;46911;32.650;-16.902;2022-10-17T10:09:39;6.30;;;1.25;;
61025;SDS011;46911;32.650;-16.902;2022-10-17T10:13:49;5.45;;;1.20;;
61025;SDS011;46911;32.650;-16.902;2022-10-17T10:15:51;11.77;;;6.40;;
61025;SDS011;46911;32.650;-16.902;2022-10-17T10:17:55;4.25;;;1.27;;
61025;SDS011;46911;32.650;-16.902;2022-10-17T10:19:57;15.18;;;2.70;;
61025;SDS011;46911;32.650;-16.902;2022-10-17T10:22:01;4.40;;;1.35;;
61025;SDS011;46911;32.650;-16.902;2022-10-17T10:26:33;10.10;;;2.10;;
61025;SDS011;46911;32.650;-16.902;2022-10-17T10:28:39;12.10;;;2.38;;
61025;SDS011;46911;32.650;-16.902;2022-10-17T10:30:44;10.25;;;2.78;;
61025;SDS011;46911;32.650;-16.902;2022-10-17T10:32:48;9.32;;;2.10;;
61025;SDS011;46911;32.650;-16.902;2022-10-17T10:37:22;6.10;;;1.30;;
61025;SDS011;46911;32.650;-16.902;2022-10-17T10:41:57;7.55;;;0.80;;
61025;SDS011;46911;32.650;-16.902;2022-10-17T10:44:03;6.55;;;1.00;;
61025;SDS011;46911;32.650;-16.902;2022-10-17T10:46:24;3.10;;;1.17;;
61025;SDS011;46911;32.650;-16.902;2022-10-17T10:48:32;6.32;;;1.42;;
61025;SDS011;46911;32.650;-16.902;2022-10-17T10:55:41;6.05;;;1.60;;
61025;SDS011;46911;32.650;-16.902;2022-10-17T11:00:41;2.95;;;0.52;;
61025;SDS011;46911;32.650;-16.902;2022-10-17T11:08:04;9.15;;;1.15;;
61025;SDS011;46911;32.650;-16.902;2022-10-17T11:19:43;6.97;;;1.50;;
61025;SDS011;46911;32.650;-16.902;2022-10-17T11:26:18;2.90;;;0.73;;
61025;SDS011;46911;32.650;-16.902;2022-10-17T11:28:32;3.35;;;1.05;;
61025;SDS011;46911;32.650;-16.902;2022-10-17T11:33:08;7.00;;;1.30;;
61025;SDS011;46911;32.650;-16.902;2022-10-17T11:35:25;5.28;;;1.30;;
61025;SDS011;46911;32.650;-16.902;2022-10-17T11:37:31;11.23;;;1.30;;
61025;SDS011;46911;32.650;-16.902;2022-10-17T11:39:42;4.60;;;0.90;;
61025;SDS011;46911;32.650;-16.902;2022-10-17T11:42:01;6.03;;;1.30;;
61025;SDS011;46911;32.650;-16.902;2022-10-17T11:44:14;8.63;;;0.90;;
61025;SDS011;46911;32.650;-16.902;2022-10-17T11:46:40;4.72;;;1.13;;
61025;SDS011;46911;32.650;-16.902;2022-10-17T11:51:37;2.63;;;0.95;;
61025;SDS011;46911;32.650;-16.902;2022-10-17T11:57:27;2.55;;;0.93;;
61025;SDS011;46911;32.650;-16.902;2022-10-17T12:01:43;5.10;;;0.80;;
61025;SDS011;46911;32.650;-16.902;2022-10-17T12:04:06;2.28;;;0.70;;
61025;SDS011;46911;32.650;-16.902;2022-10-17T12:08:48;2.22;;;0.50;;
61025;SDS011;46911;32.650;-16.902;2022-10-17T12:15:36;8.45;;;0.75;;
61025;SDS011;46911;32.650;-16.902;2022-10-17T12:17:45;1.40;;;0.60;;
61025;SDS011;46911;32.650;-16.902;2022-10-17T12:22:30;2.05;;;0.60;;
61025;SDS011;46911;32.650;-16.902;2022-10-17T12:24:38;1.27;;;0.52;;
61025;SDS011;46911;32.650;-16.902;2022-10-17T12:29:26;2.05;;;0.82;;
61025;SDS011;46911;32.650;-16.902;2022-10-17T12:31:31;2.90;;;0.65;;
61025;SDS011;46911;32.650;-16.902;2022-10-17T12:33:33;4.18;;;1.10;;
61025;SDS011;46911;32.650;-16.902;2022-10-17T12:35:35;2.70;;;0.88;;
61025;SDS011;46911;32.650;-16.902;2022-10-17T12:39:43;2.65;;;0.85;;
61025;SDS011;46911;32.650;-16.902;2022-10-17T12:43:48;5.32;;;1.75;;
61025;SDS011;46911;32.650;-16.902;2022-10-17T12:45:56;4.03;;;1.08;;
61025;SDS011;46911;32.650;-16.902;2022-10-17T12:48:01;3.83;;;1.20;;
61025;SDS011;46911;32.650;-16.902;2022-10-17T12:50:02;4.07;;;1.10;;
61025;SDS011;46911;32.650;-16.902;2022-10-17T12:52:04;3.70;;;0.75;;
61025;SDS011;46911;32.650;-16.902;2022-10-17T12:54:10;5.30;;;0.68;;
61025;SDS011;46911;32.650;-16.902;2022-10-17T12:56:21;4.25;;;0.68;;
61025;SDS011;46911;32.650;-16.902;2022-10-17T12:58:33;5.30;;;0.93;;
61025;SDS011;46911;32.650;-16.902;2022-10-17T13:00:51;1.85;;;0.40;;
61025;SDS011;46911;32.650;-16.902;2022-10-17T13:03:01;11.30;;;0.60;;
61025;SDS011;46911;32.650;-16.902;2022-10-17T13:05:06;6.45;;;0.93;;
61025;SDS011;46911;32.650;-16.902;2022-10-17T13:07:20;2.80;;;0.95;;
61025;SDS011;46911;32.650;-16.902;2022-10-17T13:09:30;4.95;;;0.90;;
61025;SDS011;46911;32.650;-16.902;2022-10-17T13:11:39;3.38;;;0.82;;
61025;SDS011;46911;32.650;-16.902;2022-10-17T13:13:48;4.25;;;0.77;;
61025;SDS011;46911;32.650;-16.902;2022-10-17T13:15:54;3.47;;;0.80;;
61025;SDS011;46911;32.650;-16.902;2022-10-17T13:17:58;8.15;;;1.17;;
61025;SDS011;46911;32.650;-16.902;2022-10-17T13:20:00;18.30;;;1.35;;
61025;SDS011;46911;32.650;-16.902;2022-10-17T13:22:09;6.60;;;1.15;;
61025;SDS011;46911;32.650;-16.902;2022-10-17T13:26:26;4.17;;;0.93;;
61025;SDS011;46911;32.650;-16.902;2022-10-17T13:28:31;4.80;;;0.93;;
61025;SDS011;46911;32.650;-16.902;2022-10-17T13:30:33;3.88;;;0.77;;
61025;SDS011;46911;32.650;-16.902;2022-10-17T13:32:36;6.70;;;1.17;;
61025;SDS011;46911;32.650;-16.902;2022-10-17T13:34:39;5.30;;;1.52;;
61025;SDS011;46911;32.650;-16.902;2022-10-17T13:36:39;7.88;;;0.88;;
61025;SDS011;46911;32.650;-16.902;2022-10-17T13:38:46;8.07;;;0.80;;
61025;SDS011;46911;32.650;-16.902;2022-10-17T13:40:49;3.95;;;1.45;;
61025;SDS011;46911;32.650;-16.902;2022-10-17T13:42:54;9.20;;;1.35;;
61025;SDS011;46911;32.650;-16.902;2022-10-17T13:44:56;3.15;;;0.55;;
61025;SDS011;46911;32.650;-16.902;2022-10-17T13:46:58;2.25;;;0.40;;
61025;SDS011;46911;32.650;-16.902;2022-10-17T13:49:07;7.88;;;0.65;;
61025;SDS011;46911;32.650;-16.902;2022-10-17T13:51:11;6.63;;;0.82;;
61025;SDS011;46911;32.650;-16.902;2022-10-17T13:55:24;4.75;;;0.88;;
61025;SDS011;46911;32.650;-16.902;2022-10-17T13:57:26;7.60;;;0.75;;
61025;SDS011;46911;32.650;-16.902;2022-10-17T14:02:22;3.58;;;0.90;;
61025;SDS011;46911;32.650;-16.902;2022-10-17T14:04:25;8.70;;;1.17;;
61025;SDS011;46911;32.650;-16.902;2022-10-17T14:06:26;9.65;;;0.90;;
61025;SDS011;46911;32.650;-16.902;2022-10-17T14:08:30;8.00;;;1.33;;
61025;SDS011;46911;32.650;-16.902;2022-10-17T14:10:35;6.43;;;1.52;;
61025;SDS011;46911;32.650;-16.902;2022-10-17T14:12:41;7.78;;;0.95;;
61025;SDS011;46911;32.650;-16.902;2022-10-17T14:14:48;4.57;;;1.17;;
61025;SDS011;46911;32.650;-16.902;2022-10-17T14:16:53;8.02;;;1.10;;
61025;SDS011;46911;32.650;-16.902;2022-10-17T14:18:54;3.75;;;0.90;;
61025;SDS011;46911;32.650;-16.902;2022-10-17T14:20:55;7.18;;;1.15;;
61025;SDS011;46911;32.650;-16.902;2022-10-17T14:22:57;11.40;;;1.27;;
61025;SDS011;46911;32.650;-16.902;2022-10-17T14:25:02;9.40;;;1.10;;
61025;SDS011;46911;32.650;-16.902;2022-10-17T14:27:22;4.75;;;0.95;;
61025;SDS011;46911;32.650;-16.902;2022-10-17T14:31:31;24.33;;;1.33;;